Terminal Aerodrome Forecast
Issued by NWS Houston/Galveston TX

Home | Current Version | Previous Version | Text Only | Print | Product List | Glossary On
Versions: 1 2 3 4 5 6 7 8 9 10 11 12 13 14 15 16 17 18 19 20 21 22 23 24 25 26 27 28 29 30 31 32 33 34 35 36 37 38 39 40 41 42 43 44 45 46 47 48 49 50
463
FTUS44 KHGX 111123
TAFHOU
TAF
KHOU 111123Z 1112/1212 14007KT P6SM VCSH SCT025 BKN045
      TEMPO 1112/1115 5SM -RA BR BKN025
     FM111500 17010KT P6SM BKN012
     FM111800 18013G23KT P6SM BKN025
     FM120200 18009KT 5SM BR BKN012
     FM120900 20005KT 3SM BR BCFG OVC009=

USA.gov is the U.S. government's official web portal to all federal, state and local government web resources and services.